Battle Harbour, Canada
Current Conditions -  °F | °C
As of 8:00 PM on Sunday 21 Dec 2014 (Local Time) from CYMH Reporting Station
Clear Clear  
Wind Chill:   Ceiling: Unl
Heat Index: 14°   Visibility: 9mi
Dew Point:   Wind: 5mph
Humidity: 79%   Direction: 300°WNW
Pressure: 30.33"   Gusts: NA
Location:  52.27°N, 55.58°W
Report Text: CYMH 220000Z AUTO 30004KT 9SM CLR M10/M13 A3033 RMK SLP270
Loading
Personal Weather Stations






























Interactive Weather Map New forecast layout! Learn more

10-Day Weather Forecast

Advertisements
Track Severe Weather on mobile